sensor_id;sensor_type;location;lat;lon;timestamp;temperature;humidity
20091;DHT22;10205;49.678;6.560;2023-06-14T00:01:10;28.70;28.20
20091;DHT22;10205;49.678;6.560;2023-06-14T00:03:39;28.70;28.20
20091;DHT22;10205;49.678;6.560;2023-06-14T00:06:06;28.60;28.30
20091;DHT22;10205;49.678;6.560;2023-06-14T00:08:33;28.50;28.40
20091;DHT22;10205;49.678;6.560;2023-06-14T00:11:02;28.40;28.50
20091;DHT22;10205;49.678;6.560;2023-06-14T00:13:29;28.40;28.60
20091;DHT22;10205;49.678;6.560;2023-06-14T00:15:56;28.30;28.50
20091;DHT22;10205;49.678;6.560;2023-06-14T00:18:23;28.20;28.60
20091;DHT22;10205;49.678;6.560;2023-06-14T00:20:55;28.10;28.60
20091;DHT22;10205;49.678;6.560;2023-06-14T00:23:22;28.10;28.70
20091;DHT22;10205;49.678;6.560;2023-06-14T00:25:49;28.00;28.70
20091;DHT22;10205;49.678;6.560;2023-06-14T00:28:18;27.90;28.70
20091;DHT22;10205;49.678;6.560;2023-06-14T00:30:46;27.90;28.80
20091;DHT22;10205;49.678;6.560;2023-06-14T00:33:13;27.80;28.80
20091;DHT22;10205;49.678;6.560;2023-06-14T00:35:41;27.70;28.90
20091;DHT22;10205;49.678;6.560;2023-06-14T00:38:08;27.60;28.90
20091;DHT22;10205;49.678;6.560;2023-06-14T00:40:35;27.60;28.90
20091;DHT22;10205;49.678;6.560;2023-06-14T00:43:02;27.50;29.00
20091;DHT22;10205;49.678;6.560;2023-06-14T00:45:31;27.40;29.00
20091;DHT22;10205;49.678;6.560;2023-06-14T00:48:01;27.30;29.20
20091;DHT22;10205;49.678;6.560;2023-06-14T00:50:31;27.30;29.20
20091;DHT22;10205;49.678;6.560;2023-06-14T00:52:59;27.20;29.20
20091;DHT22;10205;49.678;6.560;2023-06-14T00:55:27;27.10;29.20
20091;DHT22;10205;49.678;6.560;2023-06-14T00:57:55;27.10;29.30
20091;DHT22;10205;49.678;6.560;2023-06-14T01:00:23;27.00;29.40
20091;DHT22;10205;49.678;6.560;2023-06-14T01:02:51;26.90;29.40
20091;DHT22;10205;49.678;6.560;2023-06-14T01:05:19;26.90;29.50
20091;DHT22;10205;49.678;6.560;2023-06-14T01:08:05;26.80;29.50
20091;DHT22;10205;49.678;6.560;2023-06-14T01:10:52;26.70;29.50
20091;DHT22;10205;49.678;6.560;2023-06-14T01:13:32;26.70;29.60
20091;DHT22;10205;49.678;6.560;2023-06-14T01:16:00;26.70;29.60
20091;DHT22;10205;49.678;6.560;2023-06-14T01:18:30;26.60;29.60
20091;DHT22;10205;49.678;6.560;2023-06-14T01:20:58;26.50;29.70
20091;DHT22;10205;49.678;6.560;2023-06-14T01:23:26;26.50;29.80
20091;DHT22;10205;49.678;6.560;2023-06-14T01:25:58;26.40;29.90
20091;DHT22;10205;49.678;6.560;2023-06-14T01:28:29;26.30;29.90
20091;DHT22;10205;49.678;6.560;2023-06-14T01:31:01;26.30;29.90
20091;DHT22;10205;49.678;6.560;2023-06-14T01:33:31;26.20;30.00
20091;DHT22;10205;49.678;6.560;2023-06-14T01:36:00;26.20;30.00
20091;DHT22;10205;49.678;6.560;2023-06-14T01:38:30;26.10;30.00
20091;DHT22;10205;49.678;6.560;2023-06-14T01:40:59;26.10;30.10
20091;DHT22;10205;49.678;6.560;2023-06-14T01:43:30;26.00;30.00
20091;DHT22;10205;49.678;6.560;2023-06-14T01:45:58;26.00;30.20
20091;DHT22;10205;49.678;6.560;2023-06-14T01:48:27;25.90;30.10
20091;DHT22;10205;49.678;6.560;2023-06-14T01:50:54;25.90;30.20
20091;DHT22;10205;49.678;6.560;2023-06-14T01:53:21;25.80;30.20
20091;DHT22;10205;49.678;6.560;2023-06-14T01:55:50;25.80;30.40
20091;DHT22;10205;49.678;6.560;2023-06-14T01:58:19;25.80;30.60
20091;DHT22;10205;49.678;6.560;2023-06-14T02:00:46;25.70;30.50
20091;DHT22;10205;49.678;6.560;2023-06-14T02:03:14;25.60;30.60
20091;DHT22;10205;49.678;6.560;2023-06-14T02:05:41;25.60;30.60
20091;DHT22;10205;49.678;6.560;2023-06-14T02:08:08;25.60;30.80
20091;DHT22;10205;49.678;6.560;2023-06-14T02:10:35;25.50;30.70
20091;DHT22;10205;49.678;6.560;2023-06-14T02:13:04;25.40;30.80
20091;DHT22;10205;49.678;6.560;2023-06-14T02:15:31;25.40;31.00
20091;DHT22;10205;49.678;6.560;2023-06-14T02:18:01;25.30;30.90
20091;DHT22;10205;49.678;6.560;2023-06-14T02:20:28;25.30;31.00
20091;DHT22;10205;49.678;6.560;2023-06-14T02:22:58;25.20;31.10
20091;DHT22;10205;49.678;6.560;2023-06-14T02:25:25;25.20;31.30
20091;DHT22;10205;49.678;6.560;2023-06-14T02:27:53;25.10;31.10
20091;DHT22;10205;49.678;6.560;2023-06-14T02:30:22;25.10;31.30
20091;DHT22;10205;49.678;6.560;2023-06-14T02:32:49;25.00;31.40
20091;DHT22;10205;49.678;6.560;2023-06-14T02:35:16;25.00;31.40
20091;DHT22;10205;49.678;6.560;2023-06-14T02:37:44;24.90;31.40
20091;DHT22;10205;49.678;6.560;2023-06-14T02:40:11;24.90;31.50
20091;DHT22;10205;49.678;6.560;2023-06-14T02:42:39;24.80;31.50
20091;DHT22;10205;49.678;6.560;2023-06-14T02:45:07;24.80;31.60
20091;DHT22;10205;49.678;6.560;2023-06-14T02:47:36;24.70;31.70
20091;DHT22;10205;49.678;6.560;2023-06-14T02:50:04;24.70;31.80
20091;DHT22;10205;49.678;6.560;2023-06-14T02:52:33;24.60;31.80
20091;DHT22;10205;49.678;6.560;2023-06-14T02:55:00;24.60;31.90
20091;DHT22;10205;49.678;6.560;2023-06-14T02:57:27;24.50;31.90
20091;DHT22;10205;49.678;6.560;2023-06-14T02:59:55;24.50;32.00
20091;DHT22;10205;49.678;6.560;2023-06-14T03:02:22;24.40;32.00
20091;DHT22;10205;49.678;6.560;2023-06-14T03:04:50;24.40;32.20
20091;DHT22;10205;49.678;6.560;2023-06-14T03:07:18;24.30;32.20
20091;DHT22;10205;49.678;6.560;2023-06-14T03:09:45;24.30;32.30
20091;DHT22;10205;49.678;6.560;2023-06-14T03:12:14;24.20;32.30
20091;DHT22;10205;49.678;6.560;2023-06-14T03:14:41;24.20;32.40
20091;DHT22;10205;49.678;6.560;2023-06-14T03:17:11;24.20;32.50
20091;DHT22;10205;49.678;6.560;2023-06-14T03:19:38;24.10;32.50
20091;DHT22;10205;49.678;6.560;2023-06-14T03:22:08;24.10;32.60
20091;DHT22;10205;49.678;6.560;2023-06-14T03:24:37;24.00;32.80
20091;DHT22;10205;49.678;6.560;2023-06-14T03:27:05;24.00;32.80
20091;DHT22;10205;49.678;6.560;2023-06-14T03:29:32;23.90;32.70
20091;DHT22;10205;49.678;6.560;2023-06-14T03:32:01;23.90;32.80
20091;DHT22;10205;49.678;6.560;2023-06-14T03:34:29;23.80;32.80
20091;DHT22;10205;49.678;6.560;2023-06-14T03:36:56;23.80;33.00
20091;DHT22;10205;49.678;6.560;2023-06-14T03:39:25;23.70;32.90
20091;DHT22;10205;49.678;6.560;2023-06-14T03:41:52;23.70;33.20
20091;DHT22;10205;49.678;6.560;2023-06-14T03:44:20;23.70;33.10
20091;DHT22;10205;49.678;6.560;2023-06-14T03:46:47;23.60;33.20
20091;DHT22;10205;49.678;6.560;2023-06-14T03:49:15;23.60;33.30
20091;DHT22;10205;49.678;6.560;2023-06-14T03:51:43;23.50;33.30
20091;DHT22;10205;49.678;6.560;2023-06-14T03:54:10;23.50;33.40
20091;DHT22;10205;49.678;6.560;2023-06-14T03:56:39;23.50;33.50
20091;DHT22;10205;49.678;6.560;2023-06-14T03:59:06;23.40;33.60
20091;DHT22;10205;49.678;6.560;2023-06-14T04:01:34;23.40;33.60
20091;DHT22;10205;49.678;6.560;2023-06-14T04:04:01;23.40;33.60
20091;DHT22;10205;49.678;6.560;2023-06-14T04:06:28;23.30;33.80
20091;DHT22;10205;49.678;6.560;2023-06-14T04:08:59;23.20;33.90
20091;DHT22;10205;49.678;6.560;2023-06-14T04:11:30;23.20;34.00
20091;DHT22;10205;49.678;6.560;2023-06-14T04:13:59;23.20;34.10
20091;DHT22;10205;49.678;6.560;2023-06-14T04:16:27;23.10;34.30
20091;DHT22;10205;49.678;6.560;2023-06-14T04:18:54;23.10;34.20
20091;DHT22;10205;49.678;6.560;2023-06-14T04:21:23;23.10;34.30
20091;DHT22;10205;49.678;6.560;2023-06-14T04:23:53;23.00;34.50
20091;DHT22;10205;49.678;6.560;2023-06-14T04:26:21;23.00;34.50
20091;DHT22;10205;49.678;6.560;2023-06-14T04:28:55;23.00;34.50
20091;DHT22;10205;49.678;6.560;2023-06-14T04:31:29;22.90;34.60
20091;DHT22;10205;49.678;6.560;2023-06-14T04:33:59;22.90;34.90
20091;DHT22;10205;49.678;6.560;2023-06-14T04:36:26;22.80;34.80
20091;DHT22;10205;49.678;6.560;2023-06-14T04:38:54;22.80;34.90
20091;DHT22;10205;49.678;6.560;2023-06-14T04:41:21;22.80;35.00
20091;DHT22;10205;49.678;6.560;2023-06-14T04:43:48;22.70;35.10
20091;DHT22;10205;49.678;6.560;2023-06-14T04:46:18;22.70;35.20
20091;DHT22;10205;49.678;6.560;2023-06-14T04:48:47;22.70;35.30
20091;DHT22;10205;49.678;6.560;2023-06-14T04:51:16;22.60;35.40
20091;DHT22;10205;49.678;6.560;2023-06-14T04:53:46;22.60;35.40
20091;DHT22;10205;49.678;6.560;2023-06-14T04:56:15;22.60;35.60
20091;DHT22;10205;49.678;6.560;2023-06-14T04:58:42;22.50;35.50
20091;DHT22;10205;49.678;6.560;2023-06-14T05:01:10;22.50;36.40
20091;DHT22;10205;49.678;6.560;2023-06-14T05:03:38;22.50;36.40
20091;DHT22;10205;49.678;6.560;2023-06-14T05:06:08;22.40;35.80
20091;DHT22;10205;49.678;6.560;2023-06-14T05:08:35;22.40;36.10
20091;DHT22;10205;49.678;6.560;2023-06-14T05:11:02;22.40;36.10
20091;DHT22;10205;49.678;6.560;2023-06-14T05:13:30;22.40;36.10
20091;DHT22;10205;49.678;6.560;2023-06-14T05:15:58;22.30;36.10
20091;DHT22;10205;49.678;6.560;2023-06-14T05:18:26;22.30;36.30
20091;DHT22;10205;49.678;6.560;2023-06-14T05:20:53;22.20;36.30
20091;DHT22;10205;49.678;6.560;2023-06-14T05:23:22;22.20;36.40
20091;DHT22;10205;49.678;6.560;2023-06-14T05:25:49;22.20;36.50
20091;DHT22;10205;49.678;6.560;2023-06-14T05:28:17;22.20;36.50
20091;DHT22;10205;49.678;6.560;2023-06-14T05:30:44;22.20;36.60
20091;DHT22;10205;49.678;6.560;2023-06-14T05:33:11;22.10;36.60
20091;DHT22;10205;49.678;6.560;2023-06-14T05:35:39;22.10;36.60
20091;DHT22;10205;49.678;6.560;2023-06-14T05:38:06;22.10;36.70
20091;DHT22;10205;49.678;6.560;2023-06-14T05:40:34;22.10;36.80
20091;DHT22;10205;49.678;6.560;2023-06-14T05:43:02;22.10;37.10
20091;DHT22;10205;49.678;6.560;2023-06-14T05:45:29;22.10;37.80
20091;DHT22;10205;49.678;6.560;2023-06-14T05:47:56;22.00;37.30
20091;DHT22;10205;49.678;6.560;2023-06-14T05:50:24;22.00;37.30
20091;DHT22;10205;49.678;6.560;2023-06-14T05:52:51;22.00;37.30
20091;DHT22;10205;49.678;6.560;2023-06-14T05:55:18;22.00;37.40
20091;DHT22;10205;49.678;6.560;2023-06-14T05:57:47;21.90;37.40
20091;DHT22;10205;49.678;6.560;2023-06-14T06:00:15;21.90;37.90
20091;DHT22;10205;49.678;6.560;2023-06-14T06:02:44;21.90;37.80
20091;DHT22;10205;49.678;6.560;2023-06-14T06:05:13;21.90;38.00
20091;DHT22;10205;49.678;6.560;2023-06-14T06:07:42;21.80;38.10
20091;DHT22;10205;49.678;6.560;2023-06-14T06:10:10;21.80;38.20
20091;DHT22;10205;49.678;6.560;2023-06-14T06:12:37;21.80;38.20
20091;DHT22;10205;49.678;6.560;2023-06-14T06:15:06;21.70;38.50
20091;DHT22;10205;49.678;6.560;2023-06-14T06:17:37;21.70;38.80
20091;DHT22;10205;49.678;6.560;2023-06-14T06:20:05;21.70;38.70
20091;DHT22;10205;49.678;6.560;2023-06-14T06:22:34;21.70;38.90
20091;DHT22;10205;49.678;6.560;2023-06-14T06:25:01;21.70;38.70
20091;DHT22;10205;49.678;6.560;2023-06-14T06:27:28;21.70;39.10
20091;DHT22;10205;49.678;6.560;2023-06-14T06:29:56;21.70;39.10
20091;DHT22;10205;49.678;6.560;2023-06-14T06:32:24;21.70;39.30
20091;DHT22;10205;49.678;6.560;2023-06-14T06:34:51;21.70;39.30
20091;DHT22;10205;49.678;6.560;2023-06-14T06:37:19;21.70;39.20
20091;DHT22;10205;49.678;6.560;2023-06-14T06:39:47;21.80;39.40
20091;DHT22;10205;49.678;6.560;2023-06-14T06:42:14;21.80;39.50
20091;DHT22;10205;49.678;6.560;2023-06-14T06:44:41;21.80;39.40
20091;DHT22;10205;49.678;6.560;2023-06-14T06:47:08;21.80;39.40
20091;DHT22;10205;49.678;6.560;2023-06-14T06:49:40;21.80;39.40
20091;DHT22;10205;49.678;6.560;2023-06-14T06:52:07;21.90;39.70
20091;DHT22;10205;49.678;6.560;2023-06-14T06:54:35;21.90;39.40
20091;DHT22;10205;49.678;6.560;2023-06-14T06:57:02;22.00;39.60
20091;DHT22;10205;49.678;6.560;2023-06-14T06:59:32;22.00;39.70
20091;DHT22;10205;49.678;6.560;2023-06-14T07:01:59;22.00;39.50
20091;DHT22;10205;49.678;6.560;2023-06-14T07:04:26;22.10;39.70
20091;DHT22;10205;49.678;6.560;2023-06-14T07:06:55;22.10;39.60
20091;DHT22;10205;49.678;6.560;2023-06-14T07:09:22;22.20;39.80
20091;DHT22;10205;49.678;6.560;2023-06-14T07:11:50;22.20;39.70
20091;DHT22;10205;49.678;6.560;2023-06-14T07:14:17;22.30;39.60
20091;DHT22;10205;49.678;6.560;2023-06-14T07:16:45;22.30;39.60
20091;DHT22;10205;49.678;6.560;2023-06-14T07:19:12;22.30;39.60
20091;DHT22;10205;49.678;6.560;2023-06-14T07:21:39;22.40;39.60
20091;DHT22;10205;49.678;6.560;2023-06-14T07:24:08;22.50;39.60
20091;DHT22;10205;49.678;6.560;2023-06-14T07:26:36;22.50;39.60
20091;DHT22;10205;49.678;6.560;2023-06-14T07:29:03;22.60;39.50
20091;DHT22;10205;49.678;6.560;2023-06-14T07:31:30;22.70;39.50
20091;DHT22;10205;49.678;6.560;2023-06-14T07:33:57;22.70;39.50
20091;DHT22;10205;49.678;6.560;2023-06-14T07:36:25;22.80;39.40
20091;DHT22;10205;49.678;6.560;2023-06-14T07:38:52;22.80;39.30
20091;DHT22;10205;49.678;6.560;2023-06-14T07:41:20;22.90;39.30
20091;DHT22;10205;49.678;6.560;2023-06-14T07:43:48;22.90;39.40
20091;DHT22;10205;49.678;6.560;2023-06-14T07:46:15;23.00;39.40
20091;DHT22;10205;49.678;6.560;2023-06-14T07:48:42;23.10;39.40
20091;DHT22;10205;49.678;6.560;2023-06-14T07:51:10;23.10;39.30
20091;DHT22;10205;49.678;6.560;2023-06-14T07:53:37;23.20;39.20
20091;DHT22;10205;49.678;6.560;2023-06-14T07:56:04;23.30;39.20
20091;DHT22;10205;49.678;6.560;2023-06-14T07:58:33;23.40;39.10
20091;DHT22;10205;49.678;6.560;2023-06-14T08:01:00;23.50;39.30
20091;DHT22;10205;49.678;6.560;2023-06-14T08:03:31;23.60;39.10
20091;DHT22;10205;49.678;6.560;2023-06-14T08:05:59;23.60;39.00
20091;DHT22;10205;49.678;6.560;2023-06-14T08:08:26;23.70;39.00
20091;DHT22;10205;49.678;6.560;2023-06-14T08:10:54;23.80;38.90
20091;DHT22;10205;49.678;6.560;2023-06-14T08:13:21;23.90;38.80
20091;DHT22;10205;49.678;6.560;2023-06-14T08:15:50;24.00;38.70
20091;DHT22;10205;49.678;6.560;2023-06-14T08:18:17;24.10;38.70
20091;DHT22;10205;49.678;6.560;2023-06-14T08:20:44;24.20;38.70
20091;DHT22;10205;49.678;6.560;2023-06-14T08:23:11;24.30;38.50
20091;DHT22;10205;49.678;6.560;2023-06-14T08:25:38;24.40;38.50
20091;DHT22;10205;49.678;6.560;2023-06-14T08:28:06;24.50;38.40
20091;DHT22;10205;49.678;6.560;2023-06-14T08:30:33;24.60;38.40
20091;DHT22;10205;49.678;6.560;2023-06-14T08:33:01;24.70;38.30
20091;DHT22;10205;49.678;6.560;2023-06-14T08:35:29;24.80;38.20
20091;DHT22;10205;49.678;6.560;2023-06-14T08:37:56;24.90;38.00
20091;DHT22;10205;49.678;6.560;2023-06-14T08:40:24;25.00;38.00
20091;DHT22;10205;49.678;6.560;2023-06-14T08:42:52;25.00;37.80
20091;DHT22;10205;49.678;6.560;2023-06-14T08:45:20;25.10;37.70
20091;DHT22;10205;49.678;6.560;2023-06-14T08:47:48;25.30;37.70
20091;DHT22;10205;49.678;6.560;2023-06-14T08:50:21;25.30;37.60
20091;DHT22;10205;49.678;6.560;2023-06-14T08:52:53;25.40;37.60
20091;DHT22;10205;49.678;6.560;2023-06-14T08:55:23;25.50;37.70
20091;DHT22;10205;49.678;6.560;2023-06-14T08:57:54;25.60;37.50
20091;DHT22;10205;49.678;6.560;2023-06-14T09:00:23;25.70;37.30
20091;DHT22;10205;49.678;6.560;2023-06-14T09:02:51;25.80;37.30
20091;DHT22;10205;49.678;6.560;2023-06-14T09:05:25;25.90;37.10
20091;DHT22;10205;49.678;6.560;2023-06-14T09:07:52;26.00;36.90
20091;DHT22;10205;49.678;6.560;2023-06-14T09:10:22;26.10;36.90
20091;DHT22;10205;49.678;6.560;2023-06-14T09:12:51;26.20;36.70
20091;DHT22;10205;49.678;6.560;2023-06-14T09:15:18;26.30;36.70
20091;DHT22;10205;49.678;6.560;2023-06-14T09:17:46;26.40;36.60
20091;DHT22;10205;49.678;6.560;2023-06-14T09:20:14;26.50;36.40
20091;DHT22;10205;49.678;6.560;2023-06-14T09:22:45;26.60;36.10
20091;DHT22;10205;49.678;6.560;2023-06-14T09:25:12;26.70;36.20
20091;DHT22;10205;49.678;6.560;2023-06-14T09:27:41;26.80;35.90
20091;DHT22;10205;49.678;6.560;2023-06-14T09:30:10;26.80;35.90
20091;DHT22;10205;49.678;6.560;2023-06-14T09:32:38;26.90;35.60
20091;DHT22;10205;49.678;6.560;2023-06-14T09:35:07;27.00;35.60
20091;DHT22;10205;49.678;6.560;2023-06-14T09:37:35;27.10;35.50
20091;DHT22;10205;49.678;6.560;2023-06-14T09:40:06;27.30;35.30
20091;DHT22;10205;49.678;6.560;2023-06-14T09:42:35;27.30;35.00
20091;DHT22;10205;49.678;6.560;2023-06-14T09:45:03;27.40;35.10
20091;DHT22;10205;49.678;6.560;2023-06-14T09:47:31;27.50;35.00
20091;DHT22;10205;49.678;6.560;2023-06-14T09:49:59;27.60;34.90
20091;DHT22;10205;49.678;6.560;2023-06-14T09:52:27;27.70;34.50
20091;DHT22;10205;49.678;6.560;2023-06-14T09:54:59;27.80;34.40
20091;DHT22;10205;49.678;6.560;2023-06-14T09:57:29;27.80;34.20
20091;DHT22;10205;49.678;6.560;2023-06-14T10:00:01;28.00;33.90
20091;DHT22;10205;49.678;6.560;2023-06-14T10:02:36;28.10;33.80
20091;DHT22;10205;49.678;6.560;2023-06-14T10:05:06;28.20;33.60
20091;DHT22;10205;49.678;6.560;2023-06-14T10:07:40;28.20;33.60
20091;DHT22;10205;49.678;6.560;2023-06-14T10:10:11;28.30;33.40
20091;DHT22;10205;49.678;6.560;2023-06-14T10:12:40;28.40;33.30
20091;DHT22;10205;49.678;6.560;2023-06-14T10:15:10;28.50;33.80
20091;DHT22;10205;49.678;6.560;2023-06-14T10:17:45;28.60;33.00
20091;DHT22;10205;49.678;6.560;2023-06-14T10:20:23;28.70;32.60
20091;DHT22;10205;49.678;6.560;2023-06-14T10:23:00;28.80;32.40
20091;DHT22;10205;49.678;6.560;2023-06-14T10:25:31;28.80;32.30
20091;DHT22;10205;49.678;6.560;2023-06-14T10:28:14;29.00;32.20
20091;DHT22;10205;49.678;6.560;2023-06-14T10:31:03;29.10;31.40
20091;DHT22;10205;49.678;6.560;2023-06-14T10:33:31;29.10;31.30
20091;DHT22;10205;49.678;6.560;2023-06-14T10:36:10;29.20;31.00
20091;DHT22;10205;49.678;6.560;2023-06-14T10:38:58;29.30;31.00
20091;DHT22;10205;49.678;6.560;2023-06-14T10:41:27;29.40;30.50
20091;DHT22;10205;49.678;6.560;2023-06-14T10:47:23;29.50;29.70
20091;DHT22;10205;49.678;6.560;2023-06-14T10:49:53;29.70;29.80
20091;DHT22;10205;49.678;6.560;2023-06-14T10:52:25;29.70;29.50
20091;DHT22;10205;49.678;6.560;2023-06-14T10:55:08;29.80;29.90
20091;DHT22;10205;49.678;6.560;2023-06-14T10:57:39;29.90;29.40
20091;DHT22;10205;49.678;6.560;2023-06-14T11:00:10;29.90;29.10
20091;DHT22;10205;49.678;6.560;2023-06-14T11:05:57;30.10;28.40
20091;DHT22;10205;49.678;6.560;2023-06-14T11:11:58;30.30;28.50
20091;DHT22;10205;49.678;6.560;2023-06-14T11:14:30;30.40;28.90
20091;DHT22;10205;49.678;6.560;2023-06-14T11:16:59;30.50;28.50
20091;DHT22;10205;49.678;6.560;2023-06-14T11:19:26;30.60;28.30
20091;DHT22;10205;49.678;6.560;2023-06-14T11:21:55;30.60;28.40
20091;DHT22;10205;49.678;6.560;2023-06-14T11:24:22;30.70;27.60
20091;DHT22;10205;49.678;6.560;2023-06-14T11:26:49;30.80;28.00
20091;DHT22;10205;49.678;6.560;2023-06-14T11:29:17;30.80;28.00
20091;DHT22;10205;49.678;6.560;2023-06-14T11:31:47;30.90;27.80
20091;DHT22;10205;49.678;6.560;2023-06-14T11:34:16;31.00;27.80
20091;DHT22;10205;49.678;6.560;2023-06-14T11:36:44;31.00;27.80
20091;DHT22;10205;49.678;6.560;2023-06-14T11:39:13;31.10;27.90
20091;DHT22;10205;49.678;6.560;2023-06-14T11:41:43;31.10;27.50
20091;DHT22;10205;49.678;6.560;2023-06-14T11:44:11;31.20;27.60
20091;DHT22;10205;49.678;6.560;2023-06-14T11:46:39;31.30;27.80
20091;DHT22;10205;49.678;6.560;2023-06-14T11:49:07;31.30;27.70
20091;DHT22;10205;49.678;6.560;2023-06-14T11:51:37;31.40;27.40
20091;DHT22;10205;49.678;6.560;2023-06-14T11:54:06;31.40;27.20
20091;DHT22;10205;49.678;6.560;2023-06-14T11:56:34;31.50;27.30
20091;DHT22;10205;49.678;6.560;2023-06-14T11:59:03;31.60;27.30
20091;DHT22;10205;49.678;6.560;2023-06-14T12:01:31;31.60;27.10
20091;DHT22;10205;49.678;6.560;2023-06-14T12:03:59;31.70;27.30
20091;DHT22;10205;49.678;6.560;2023-06-14T12:06:28;31.80;27.20
20091;DHT22;10205;49.678;6.560;2023-06-14T12:09:00;31.80;26.90
20091;DHT22;10205;49.678;6.560;2023-06-14T12:11:32;31.90;27.00
20091;DHT22;10205;49.678;6.560;2023-06-14T12:14:02;32.00;26.50
20091;DHT22;10205;49.678;6.560;2023-06-14T12:16:34;32.00;26.70
20091;DHT22;10205;49.678;6.560;2023-06-14T12:19:08;32.10;26.80
20091;DHT22;10205;49.678;6.560;2023-06-14T12:21:38;32.20;26.40
20091;DHT22;10205;49.678;6.560;2023-06-14T12:24:08;32.20;26.40
20091;DHT22;10205;49.678;6.560;2023-06-14T12:26:38;32.30;26.20
20091;DHT22;10205;49.678;6.560;2023-06-14T12:29:07;32.30;26.40
20091;DHT22;10205;49.678;6.560;2023-06-14T12:31:35;32.40;26.30
20091;DHT22;10205;49.678;6.560;2023-06-14T12:34:03;32.40;26.20
20091;DHT22;10205;49.678;6.560;2023-06-14T12:36:30;32.50;26.30
20091;DHT22;10205;49.678;6.560;2023-06-14T12:38:58;32.60;26.30
20091;DHT22;10205;49.678;6.560;2023-06-14T12:41:26;32.60;25.70
20091;DHT22;10205;49.678;6.560;2023-06-14T12:43:54;32.60;25.70
20091;DHT22;10205;49.678;6.560;2023-06-14T12:46:23;32.70;26.00
20091;DHT22;10205;49.678;6.560;2023-06-14T12:48:51;32.80;25.80
20091;DHT22;10205;49.678;6.560;2023-06-14T12:51:18;32.80;25.70
20091;DHT22;10205;49.678;6.560;2023-06-14T12:53:45;32.80;25.20
20091;DHT22;10205;49.678;6.560;2023-06-14T12:56:13;32.90;25.40
20091;DHT22;10205;49.678;6.560;2023-06-14T12:58:41;32.90;25.40
20091;DHT22;10205;49.678;6.560;2023-06-14T13:01:08;33.00;25.30
20091;DHT22;10205;49.678;6.560;2023-06-14T13:03:36;33.00;25.30
20091;DHT22;10205;49.678;6.560;2023-06-14T13:06:03;33.10;25.60
20091;DHT22;10205;49.678;6.560;2023-06-14T13:08:31;33.10;25.30
20091;DHT22;10205;49.678;6.560;2023-06-14T13:10:58;33.10;25.70
20091;DHT22;10205;49.678;6.560;2023-06-14T13:13:26;33.20;25.40
20091;DHT22;10205;49.678;6.560;2023-06-14T13:15:54;33.20;25.80
20091;DHT22;10205;49.678;6.560;2023-06-14T13:18:22;33.30;25.60
20091;DHT22;10205;49.678;6.560;2023-06-14T13:20:49;33.40;25.10
20091;DHT22;10205;49.678;6.560;2023-06-14T13:23:16;33.40;24.90
20091;DHT22;10205;49.678;6.560;2023-06-14T13:25:44;33.40;24.70
20091;DHT22;10205;49.678;6.560;2023-06-14T13:28:11;33.50;24.20
20091;DHT22;10205;49.678;6.560;2023-06-14T13:30:38;33.60;24.70
20091;DHT22;10205;49.678;6.560;2023-06-14T13:33:07;33.60;24.70
20091;DHT22;10205;49.678;6.560;2023-06-14T13:35:34;33.60;24.10
20091;DHT22;10205;49.678;6.560;2023-06-14T13:38:01;33.70;24.30
20091;DHT22;10205;49.678;6.560;2023-06-14T13:40:29;33.70;24.10
20091;DHT22;10205;49.678;6.560;2023-06-14T13:42:56;33.80;24.00
20091;DHT22;10205;49.678;6.560;2023-06-14T13:45:23;33.80;24.30
20091;DHT22;10205;49.678;6.560;2023-06-14T13:47:51;33.90;24.20
20091;DHT22;10205;49.678;6.560;2023-06-14T13:50:21;33.90;24.20
20091;DHT22;10205;49.678;6.560;2023-06-14T13:52:49;33.90;24.10
20091;DHT22;10205;49.678;6.560;2023-06-14T13:55:16;33.80;23.80
20091;DHT22;10205;49.678;6.560;2023-06-14T13:57:43;33.90;23.60
20091;DHT22;10205;49.678;6.560;2023-06-14T14:00:12;33.90;24.00
20091;DHT22;10205;49.678;6.560;2023-06-14T14:02:40;33.90;24.10
20091;DHT22;10205;49.678;6.560;2023-06-14T14:05:09;33.90;23.60
20091;DHT22;10205;49.678;6.560;2023-06-14T14:07:37;33.90;23.00
20091;DHT22;10205;49.678;6.560;2023-06-14T14:10:06;33.90;23.60
20091;DHT22;10205;49.678;6.560;2023-06-14T14:12:34;33.90;23.70
20091;DHT22;10205;49.678;6.560;2023-06-14T14:15:03;33.90;23.30
20091;DHT22;10205;49.678;6.560;2023-06-14T14:17:32;33.90;23.00
20091;DHT22;10205;49.678;6.560;2023-06-14T14:20:00;33.90;23.30
20091;DHT22;10205;49.678;6.560;2023-06-14T14:22:27;33.90;23.00
20091;DHT22;10205;49.678;6.560;2023-06-14T14:24:56;33.90;22.90
20091;DHT22;10205;49.678;6.560;2023-06-14T14:27:23;33.90;23.40
20091;DHT22;10205;49.678;6.560;2023-06-14T14:29:50;33.90;23.70
20091;DHT22;10205;49.678;6.560;2023-06-14T14:32:17;33.90;23.90
20091;DHT22;10205;49.678;6.560;2023-06-14T14:34:44;33.90;23.60
20091;DHT22;10205;49.678;6.560;2023-06-14T14:37:12;33.90;23.70
20091;DHT22;10205;49.678;6.560;2023-06-14T14:39:40;33.90;23.80
20091;DHT22;10205;49.678;6.560;2023-06-14T14:42:09;33.90;23.70
20091;DHT22;10205;49.678;6.560;2023-06-14T14:44:36;33.90;23.50
20091;DHT22;10205;49.678;6.560;2023-06-14T14:47:05;33.90;23.50
20091;DHT22;10205;49.678;6.560;2023-06-14T14:49:32;34.00;23.30
20091;DHT22;10205;49.678;6.560;2023-06-14T14:52:00;34.00;23.20
20091;DHT22;10205;49.678;6.560;2023-06-14T14:54:27;34.00;23.60
20091;DHT22;10205;49.678;6.560;2023-06-14T14:56:54;34.00;23.60
20091;DHT22;10205;49.678;6.560;2023-06-14T14:59:23;34.10;23.40
20091;DHT22;10205;49.678;6.560;2023-06-14T15:01:50;34.10;23.30
20091;DHT22;10205;49.678;6.560;2023-06-14T15:04:18;34.10;23.50
20091;DHT22;10205;49.678;6.560;2023-06-14T15:06:45;34.10;23.10
20091;DHT22;10205;49.678;6.560;2023-06-14T15:09:14;34.10;23.00
20091;DHT22;10205;49.678;6.560;2023-06-14T15:11:41;34.20;23.40
20091;DHT22;10205;49.678;6.560;2023-06-14T15:14:10;34.20;22.70
20091;DHT22;10205;49.678;6.560;2023-06-14T15:16:38;34.20;23.30
20091;DHT22;10205;49.678;6.560;2023-06-14T15:19:06;34.20;22.60
20091;DHT22;10205;49.678;6.560;2023-06-14T15:21:33;34.20;22.90
20091;DHT22;10205;49.678;6.560;2023-06-14T15:24:01;34.30;23.30
20091;DHT22;10205;49.678;6.560;2023-06-14T15:26:28;34.30;23.10
20091;DHT22;10205;49.678;6.560;2023-06-14T15:28:55;34.30;23.10
20091;DHT22;10205;49.678;6.560;2023-06-14T15:31:22;34.30;23.00
20091;DHT22;10205;49.678;6.560;2023-06-14T15:33:54;34.30;23.10
20091;DHT22;10205;49.678;6.560;2023-06-14T15:36:21;34.40;23.50
20091;DHT22;10205;49.678;6.560;2023-06-14T15:38:51;34.40;23.00
20091;DHT22;10205;49.678;6.560;2023-06-14T15:41:19;34.40;23.40
20091;DHT22;10205;49.678;6.560;2023-06-14T15:43:46;34.40;23.60
20091;DHT22;10205;49.678;6.560;2023-06-14T15:46:13;34.40;23.40
20091;DHT22;10205;49.678;6.560;2023-06-14T15:48:41;34.40;23.20